Airfield :
LOGIN :

Register | Disclaimer

   EN    FR    IT 

 










Legend :    VFR   Marginal VFR   IFR   Intensive IFR   Very Intensive IFR
Visi :
Ceiling :
>= 8 km
>= 3000ft
5 to 8 km
1000 to 3000 ft
1500m to 5 km
500 to 1000 ft
800 to 1500m
200 to 500 ft
< 800m
< 200 ft
Symbols :   Thunderstorms  Fog  Heavy snow  Heavy precipitations  Wind > 20 kt
SIGMETs :     Misc.  Thunderstorms  Icing  Turbulence  Mountain Waves  Volcanic Ashes







- Airport Elevation : 202 ft
- IATA code : LGW
- Download approach charts


EGKK - London Gatwick

CURRENT METAR :
  • 171250Z 22006KT 160V270 CAVOK 23/11 Q1014

EXPIRED METARs :
  • 171220Z 22006KT 170V270 CAVOK 23/12 Q1014
  • 171150Z 22006KT 170V280 9999 FEW017 22/11 Q1014
  • 171120Z 21006KT 150V250 CAVOK 23/11 Q1015
  • 171050Z 19006KT 130V230 9999 FEW037 22/12 Q1015
  • 171020Z 22006KT 140V270 CAVOK 22/12 Q1015

TAF AMD TAF EGKK
Valid from the 17 at 12:00 until the 18 at 18:00 UTC


171110Z 1712/1818 21007KT 9999 FEW045
BECMG 1804/1807 BKN012
TEMPO 1807/1810 6000 RA BKN006
BECMG 1808/1811 FEW025
BECMG 1809/1812 27010KT
No reported NOTAMs for that airfield.



MET'MAP, your aeronautical weather chart ! - Copyright ORBIFLY December 2007 - Disclaimer

ORBIFLY MET'MAP TEAM :

Programming & Development : Alexandra Zaïnal
Concept & Development : Baudouin d'Aumeries
Co-Development & Prog : Marc-Olivier Méhu
Technical & hardware support : Manuel Goepfert

Contact : metmap@orbifly.com




SOURCES & CREDITS :

   NOAA